createdAt,value
2024-02-17T00:00:05.229Z,22.15
2024-02-17T00:01:05.221Z,22.15
2024-02-17T00:02:05.147Z,22.15
2024-02-17T00:03:05.227Z,22.15
2024-02-17T00:04:05.345Z,22.14
2024-02-17T00:05:05.280Z,22.14
2024-02-17T00:06:05.365Z,22.14
2024-02-17T00:07:05.345Z,22.13
2024-02-17T00:08:05.321Z,22.13
2024-02-17T00:09:05.414Z,22.14
2024-02-17T00:10:05.458Z,22.13
2024-02-17T00:11:05.497Z,22.13
2024-02-17T00:12:05.465Z,22.13
2024-02-17T00:13:05.533Z,22.12
2024-02-17T00:14:05.529Z,22.12
2024-02-17T00:15:05.605Z,22.12
2024-02-17T00:16:05.594Z,22.13
2024-02-17T00:17:05.652Z,22.11
2024-02-17T00:18:05.761Z,22.12
2024-02-17T00:19:05.844Z,22.11
2024-02-17T00:20:05.927Z,22.11
2024-02-17T00:21:05.973Z,22.11
2024-02-17T00:22:05.875Z,22.10
2024-02-17T00:23:05.859Z,22.11
2024-02-17T00:24:05.947Z,22.11
2024-02-17T00:25:05.964Z,22.11
2024-02-17T00:26:06.034Z,22.10
2024-02-17T00:27:06.046Z,22.11
2024-02-17T00:28:06.057Z,22.11
2024-02-17T00:29:06.083Z,22.10
2024-02-17T00:30:06.187Z,22.10
2024-02-17T00:31:06.167Z,22.09
2024-02-17T00:32:06.277Z,22.09
2024-02-17T00:33:06.379Z,22.10
2024-02-17T00:34:06.455Z,22.10
2024-02-17T00:35:06.349Z,22.09
2024-02-17T00:36:06.428Z,22.09
2024-02-17T00:37:06.417Z,22.09
2024-02-17T00:38:06.402Z,22.09
2024-02-17T00:39:06.471Z,22.08
2024-02-17T00:40:06.476Z,22.09
2024-02-17T00:41:06.504Z,22.09
2024-02-17T00:42:06.592Z,22.09
2024-02-17T00:43:06.585Z,22.09
2024-02-17T00:44:06.594Z,22.09
2024-02-17T00:45:06.665Z,22.09
2024-02-17T00:46:06.664Z,22.09
2024-02-17T00:47:06.700Z,22.09
2024-02-17T00:48:06.847Z,22.08
2024-02-17T00:49:06.861Z,22.08
2024-02-17T00:50:06.856Z,22.08
2024-02-17T00:52:06.909Z,22.07
2024-02-17T00:53:06.930Z,22.07
2024-02-17T00:54:07.009Z,22.07
2024-02-17T00:55:06.982Z,22.06
2024-02-17T00:56:07.020Z,22.06
2024-02-17T00:57:07.120Z,22.06
2024-02-17T00:58:07.097Z,22.06
2024-02-17T00:59:07.139Z,22.06
2024-02-17T01:00:07.167Z,22.05
2024-02-17T01:01:07.251Z,22.06
2024-02-17T01:02:07.361Z,22.06
2024-02-17T01:03:07.271Z,22.06
2024-02-17T01:04:07.518Z,22.05
2024-02-17T01:05:07.408Z,22.06
2024-02-17T01:06:07.443Z,22.06
2024-02-17T01:07:07.455Z,22.04
2024-02-17T01:08:07.439Z,22.05
2024-02-17T01:09:07.523Z,22.05
2024-02-17T01:10:07.507Z,22.04
2024-02-17T01:11:07.563Z,22.04
2024-02-17T01:12:07.589Z,22.04
2024-02-17T01:13:07.592Z,22.04
2024-02-17T01:14:07.636Z,22.04
2024-02-17T01:15:07.688Z,22.05
2024-02-17T01:16:07.725Z,22.04
2024-02-17T01:17:07.734Z,22.04
2024-02-17T01:18:08.131Z,22.04
2024-02-17T01:19:07.878Z,22.03
2024-02-17T01:20:07.927Z,22.03
2024-02-17T01:21:07.945Z,22.03
2024-02-17T01:22:07.924Z,22.03
2024-02-17T01:23:07.947Z,22.02
2024-02-17T01:24:08.022Z,22.02
2024-02-17T01:25:08.030Z,22.03
2024-02-17T01:26:08.292Z,22.03
2024-02-17T01:27:08.240Z,22.03
2024-02-17T01:28:08.127Z,22.02
2024-02-17T01:29:08.164Z,22.02
2024-02-17T01:30:08.235Z,22.02
2024-02-17T01:31:08.211Z,22.02
2024-02-17T01:32:08.241Z,22.01
2024-02-17T01:33:08.404Z,22.02
2024-02-17T01:34:08.343Z,22.01
2024-02-17T01:35:08.387Z,22.00
2024-02-17T01:36:08.392Z,22.01
2024-02-17T01:37:08.394Z,22.00
2024-02-17T01:38:08.479Z,22.00
2024-02-17T01:39:08.525Z,22.00
2024-02-17T01:40:08.498Z,22.00
2024-02-17T01:41:08.520Z,21.99
2024-02-17T01:42:08.590Z,21.99
2024-02-17T01:43:08.683Z,21.99
2024-02-17T01:44:08.627Z,22.00
2024-02-17T01:45:08.691Z,21.99
2024-02-17T01:46:08.704Z,21.99
2024-02-17T01:47:08.698Z,21.98
2024-02-17T01:48:08.885Z,21.99
2024-02-17T01:49:08.838Z,21.98
2024-02-17T01:50:08.810Z,21.99
2024-02-17T01:51:08.894Z,21.98
2024-02-17T01:52:08.880Z,21.98
2024-02-17T01:53:08.946Z,21.99
2024-02-17T01:54:09.010Z,21.98
2024-02-17T01:55:08.997Z,21.98
2024-02-17T01:56:09.078Z,21.97
2024-02-17T01:57:09.196Z,21.97
2024-02-17T01:58:09.154Z,21.98
2024-02-17T01:59:09.152Z,21.98
2024-02-17T02:00:09.260Z,21.97
2024-02-17T02:01:09.378Z,21.97
2024-02-17T02:02:09.244Z,21.97
2024-02-17T02:03:09.341Z,21.97
2024-02-17T02:04:09.455Z,21.97
2024-02-17T02:05:09.406Z,21.96
2024-02-17T02:06:09.491Z,21.97
2024-02-17T02:07:09.345Z,21.96
2024-02-17T02:08:09.390Z,21.96
2024-02-17T02:09:09.360Z,21.96
2024-02-17T02:10:09.339Z,21.96
2024-02-17T02:11:09.389Z,21.96
2024-02-17T02:12:09.433Z,21.96
2024-02-17T02:13:09.501Z,21.96
2024-02-17T02:14:09.417Z,21.96
2024-02-17T02:15:09.443Z,21.96
2024-02-17T02:16:09.499Z,21.96
2024-02-17T02:17:09.432Z,21.95
2024-02-17T02:18:09.505Z,21.95
2024-02-17T02:19:09.524Z,21.95
2024-02-17T02:20:09.496Z,21.95
2024-02-17T02:21:09.513Z,21.95
2024-02-17T02:22:09.487Z,21.95
2024-02-17T02:23:09.502Z,21.94
2024-02-17T02:24:09.532Z,21.95
2024-02-17T02:25:09.489Z,21.94
2024-02-17T02:26:09.506Z,21.94
2024-02-17T02:27:09.558Z,21.94
2024-02-17T02:28:09.531Z,21.94
2024-02-17T02:29:09.508Z,21.94
2024-02-17T02:30:09.558Z,21.93
2024-02-17T02:31:09.546Z,21.93
2024-02-17T02:32:09.531Z,21.93
2024-02-17T02:33:09.629Z,21.92
2024-02-17T02:34:09.661Z,21.93
2024-02-17T02:35:09.578Z,21.93
2024-02-17T02:36:09.599Z,21.93
2024-02-17T02:37:09.559Z,21.93
2024-02-17T02:38:09.610Z,21.93
2024-02-17T02:39:09.610Z,21.92
2024-02-17T02:40:09.572Z,21.92
2024-02-17T02:41:09.596Z,21.92
2024-02-17T02:42:09.636Z,21.93
2024-02-17T02:43:09.621Z,21.92
2024-02-17T02:44:09.592Z,21.92
2024-02-17T02:45:09.658Z,21.91
2024-02-17T02:46:09.606Z,21.92
2024-02-17T02:47:09.596Z,21.91
2024-02-17T02:48:09.703Z,21.92
2024-02-17T02:49:09.717Z,21.91
2024-02-17T02:50:09.719Z,21.91
2024-02-17T02:51:09.655Z,21.91
2024-02-17T02:52:09.645Z,21.91
2024-02-17T02:53:09.725Z,21.91
2024-02-17T02:54:09.672Z,21.91
2024-02-17T02:55:09.638Z,21.90
2024-02-17T02:56:09.668Z,21.90
2024-02-17T02:57:09.736Z,21.90
2024-02-17T02:58:09.698Z,21.90
2024-02-17T02:59:09.715Z,21.90
2024-02-17T03:00:09.829Z,21.89
2024-02-17T03:01:09.823Z,21.90
2024-02-17T03:02:09.771Z,21.89
2024-02-17T03:03:09.778Z,21.89
2024-02-17T03:04:09.921Z,21.89
2024-02-17T03:05:09.802Z,21.89
2024-02-17T03:06:09.891Z,21.88
2024-02-17T03:07:09.842Z,21.89
2024-02-17T03:08:09.784Z,21.88
2024-02-17T03:09:09.805Z,21.88
2024-02-17T03:10:09.824Z,21.88
2024-02-17T03:11:09.894Z,21.89
2024-02-17T03:12:09.838Z,21.88
2024-02-17T03:13:09.824Z,21.88
2024-02-17T03:14:09.841Z,21.88
2024-02-17T03:15:09.860Z,21.88
2024-02-17T03:16:09.825Z,21.87
2024-02-17T03:17:09.853Z,21.87
2024-02-17T03:18:09.995Z,21.87
2024-02-17T03:19:09.904Z,21.88
2024-02-17T03:20:09.966Z,21.87
2024-02-17T03:21:09.875Z,21.87
2024-02-17T03:22:09.847Z,21.87
2024-02-17T03:23:09.861Z,21.87
2024-02-17T03:24:09.912Z,21.86
2024-02-17T03:25:09.898Z,21.86
2024-02-17T03:26:09.901Z,21.87
2024-02-17T03:27:09.956Z,21.86
2024-02-17T03:28:09.916Z,21.86
2024-02-17T03:29:09.942Z,21.85
2024-02-17T03:30:10.032Z,21.86
2024-02-17T03:31:09.954Z,21.86
2024-02-17T03:32:09.977Z,21.86
2024-02-17T03:33:10.109Z,21.85
2024-02-17T03:34:10.124Z,21.86
2024-02-17T03:35:10.029Z,21.86
2024-02-17T03:36:10.106Z,21.86
2024-02-17T03:37:10.021Z,21.85
2024-02-17T03:38:10.031Z,21.85
2024-02-17T03:39:10.187Z,21.85
2024-02-17T03:40:10.176Z,21.85
2024-02-17T03:41:10.037Z,21.85
2024-02-17T03:42:10.153Z,21.86
2024-02-17T03:43:10.076Z,21.84
2024-02-17T03:44:10.096Z,21.85
2024-02-17T03:45:10.144Z,21.85
2024-02-17T03:46:10.081Z,21.85
2024-02-17T03:47:10.089Z,21.84
2024-02-17T03:48:10.258Z,21.85
2024-02-17T03:49:10.238Z,21.84
2024-02-17T03:50:10.218Z,21.84
2024-02-17T03:51:10.196Z,21.84
2024-02-17T03:52:10.118Z,21.84
2024-02-17T03:53:10.180Z,21.84
2024-02-17T03:54:10.132Z,21.84
2024-02-17T03:55:10.132Z,21.84
2024-02-17T03:56:10.135Z,21.83
2024-02-17T03:57:10.146Z,21.84
2024-02-17T03:58:10.138Z,21.83
2024-02-17T03:59:10.149Z,21.83
2024-02-17T04:00:10.255Z,21.83
2024-02-17T04:01:10.207Z,21.83
2024-02-17T04:02:10.188Z,21.83
2024-02-17T04:03:12.183Z,21.83
2024-02-17T04:04:10.278Z,21.82
2024-02-17T04:05:10.398Z,21.82
2024-02-17T04:06:10.291Z,21.82
2024-02-17T04:07:10.293Z,21.82
2024-02-17T04:08:10.240Z,21.82
2024-02-17T04:09:10.273Z,21.82
2024-02-17T04:10:10.290Z,21.82
2024-02-17T04:11:10.291Z,21.82
2024-02-17T04:12:10.328Z,21.82
2024-02-17T04:13:10.269Z,21.82
2024-02-17T04:14:10.246Z,21.82
2024-02-17T04:15:10.312Z,21.82
2024-02-17T04:16:10.341Z,21.81
2024-02-17T04:17:10.300Z,21.81
2024-02-17T04:18:10.436Z,21.81
2024-02-17T04:19:10.577Z,21.81
2024-02-17T04:20:10.390Z,21.81
2024-02-17T04:21:10.339Z,21.81
2024-02-17T04:22:10.337Z,21.81
2024-02-17T04:23:10.354Z,21.81
2024-02-17T04:24:10.439Z,21.81
2024-02-17T04:25:10.385Z,21.80
2024-02-17T04:26:10.416Z,21.81
2024-02-17T04:27:10.468Z,21.80
2024-02-17T04:28:10.460Z,21.80
2024-02-17T04:29:10.464Z,21.79
2024-02-17T04:30:10.510Z,21.79
2024-02-17T04:31:10.495Z,21.79
2024-02-17T04:32:10.486Z,21.79
2024-02-17T04:33:10.578Z,21.79
2024-02-17T04:34:10.657Z,21.79
2024-02-17T04:35:10.656Z,21.79
2024-02-17T04:36:10.702Z,21.80
2024-02-17T04:37:10.616Z,21.80
2024-02-17T04:38:10.581Z,21.79
2024-02-17T04:39:17.902Z,21.77
2024-02-17T04:40:17.853Z,21.78
2024-02-17T04:41:17.859Z,21.79
2024-02-17T04:42:17.890Z,21.78
2024-02-17T04:43:17.889Z,21.79
2024-02-17T04:44:17.863Z,21.78
2024-02-17T04:45:17.910Z,21.78
2024-02-17T04:46:17.862Z,21.78
2024-02-17T04:47:17.867Z,21.77
2024-02-17T04:48:17.975Z,21.78
2024-02-17T04:49:17.907Z,21.78
2024-02-17T04:50:17.868Z,21.78
2024-02-17T04:51:17.910Z,21.77
2024-02-17T04:52:17.901Z,21.77
2024-02-17T04:53:17.878Z,21.77
2024-02-17T04:54:17.927Z,21.77
2024-02-17T04:55:17.914Z,21.77
2024-02-17T04:56:17.898Z,21.77
2024-02-17T04:57:17.924Z,21.76
2024-02-17T04:58:17.924Z,21.76
2024-02-17T04:59:17.879Z,21.76
2024-02-17T05:00:17.899Z,21.77
2024-02-17T05:01:18.091Z,21.76
2024-02-17T05:02:17.887Z,21.76
2024-02-17T05:03:18.114Z,21.77
2024-02-17T05:04:18.000Z,21.76
2024-02-17T05:05:18.086Z,21.77
2024-02-17T05:06:17.987Z,21.76
2024-02-17T05:07:17.900Z,21.76
2024-02-17T05:08:17.899Z,21.76
2024-02-17T05:09:17.933Z,21.75
2024-02-17T05:10:17.909Z,21.76
2024-02-17T05:11:17.904Z,21.77
2024-02-17T05:12:17.953Z,21.76
2024-02-17T05:13:18.084Z,21.75
2024-02-17T05:14:17.925Z,21.76
2024-02-17T05:15:17.956Z,21.76
2024-02-17T05:16:17.904Z,21.75
2024-02-17T05:17:17.911Z,21.75
2024-02-17T05:18:18.060Z,21.76
2024-02-17T05:19:18.134Z,21.75
2024-02-17T05:20:17.925Z,21.76
2024-02-17T05:21:17.994Z,21.75
2024-02-17T05:22:17.961Z,21.75
2024-02-17T05:23:17.961Z,21.75
2024-02-17T05:24:17.952Z,21.75
2024-02-17T05:25:17.941Z,21.74
2024-02-17T05:26:17.929Z,21.74
2024-02-17T05:27:18.032Z,21.73
2024-02-17T05:28:17.944Z,21.74
2024-02-17T05:29:17.927Z,21.74
2024-02-17T05:30:17.969Z,21.74
2024-02-17T05:31:17.938Z,21.74
2024-02-17T05:32:17.969Z,21.73
2024-02-17T05:33:18.047Z,21.73
2024-02-17T05:34:18.065Z,21.73
2024-02-17T05:35:18.083Z,21.74
2024-02-17T05:36:18.004Z,21.73
2024-02-17T05:37:17.967Z,21.73
2024-02-17T05:38:17.941Z,21.73
2024-02-17T05:39:18.010Z,21.73
2024-02-17T05:40:17.956Z,21.73
2024-02-17T05:41:17.944Z,21.73
2024-02-17T05:42:17.982Z,21.73
2024-02-17T05:43:17.981Z,21.72
2024-02-17T05:44:17.963Z,21.71
2024-02-17T05:45:18.009Z,21.73
2024-02-17T05:46:17.956Z,21.72
2024-02-17T05:47:17.951Z,21.72
2024-02-17T05:48:18.159Z,21.72
2024-02-17T05:49:18.092Z,21.72
2024-02-17T05:50:17.964Z,21.71
2024-02-17T05:51:17.982Z,21.71
2024-02-17T05:52:17.982Z,21.72
2024-02-17T05:53:17.964Z,21.72
2024-02-17T05:54:17.997Z,21.71
2024-02-17T05:55:17.978Z,21.71
2024-02-17T05:56:17.965Z,21.71
2024-02-17T05:57:17.981Z,21.72
2024-02-17T05:58:17.988Z,21.71
2024-02-17T05:59:18.487Z,21.71
2024-02-17T06:00:18.113Z,21.71
2024-02-17T06:01:18.078Z,21.70
2024-02-17T06:02:17.979Z,21.71
2024-02-17T06:03:18.012Z,21.71
2024-02-17T06:04:18.056Z,21.70
2024-02-17T06:05:17.995Z,21.70
2024-02-17T06:06:18.052Z,21.70
2024-02-17T06:07:18.159Z,21.70
2024-02-17T06:08:18.049Z,21.70
2024-02-17T06:09:17.977Z,21.69
2024-02-17T06:10:18.002Z,21.69
2024-02-17T06:11:18.009Z,21.70
2024-02-17T06:12:18.073Z,21.70
2024-02-17T06:13:18.058Z,21.70
2024-02-17T06:14:18.057Z,21.69
2024-02-17T06:15:18.123Z,21.68
2024-02-17T06:16:18.114Z,21.69
2024-02-17T06:17:18.134Z,21.69
2024-02-17T06:18:18.284Z,21.69
2024-02-17T06:19:18.374Z,21.69
2024-02-17T06:20:18.524Z,21.68
2024-02-17T06:21:18.245Z,21.69
2024-02-17T06:22:18.232Z,21.68
2024-02-17T06:23:18.262Z,21.69
2024-02-17T06:24:18.261Z,21.68
2024-02-17T06:25:18.270Z,21.68
2024-02-17T06:26:18.299Z,21.68
2024-02-17T06:27:18.364Z,21.68
2024-02-17T06:28:18.349Z,21.68
2024-02-17T06:29:18.347Z,21.68
2024-02-17T06:30:18.442Z,21.68
2024-02-17T06:31:18.380Z,21.69
2024-02-17T06:32:18.418Z,21.68
2024-02-17T06:33:18.640Z,21.68
2024-02-17T06:34:18.549Z,21.68
2024-02-17T06:35:18.564Z,21.68
2024-02-17T06:36:18.484Z,21.68
2024-02-17T06:37:18.481Z,21.68
2024-02-17T06:38:19.730Z,21.67
2024-02-17T06:39:18.524Z,21.67
2024-02-17T06:40:18.530Z,21.67
2024-02-17T06:41:18.553Z,21.67
2024-02-17T06:42:18.592Z,21.67
2024-02-17T06:43:18.587Z,21.67
2024-02-17T06:44:18.599Z,21.68
2024-02-17T06:45:18.652Z,21.68
2024-02-17T06:46:18.658Z,21.67
2024-02-17T06:47:18.660Z,21.67
2024-02-17T06:48:18.776Z,21.67
2024-02-17T06:49:18.744Z,21.66
2024-02-17T06:50:24.875Z,21.67
2024-02-17T06:51:19.739Z,21.66
2024-02-17T06:52:18.723Z,21.66
2024-02-17T06:53:19.301Z,21.66
2024-02-17T06:54:18.818Z,21.66
2024-02-17T06:55:18.716Z,21.66
2024-02-17T06:56:18.733Z,21.66
2024-02-17T06:57:18.801Z,21.66
2024-02-17T06:58:18.753Z,21.66
2024-02-17T06:59:18.731Z,21.66
2024-02-17T07:00:18.809Z,21.65
2024-02-17T07:01:18.813Z,21.66
2024-02-17T07:02:18.733Z,21.66
2024-02-17T07:03:18.804Z,21.66
2024-02-17T07:04:18.792Z,21.65
2024-02-17T07:05:18.743Z,21.65
2024-02-17T07:06:18.955Z,21.65
2024-02-17T07:07:18.807Z,21.66
2024-02-17T07:08:18.747Z,21.65
2024-02-17T07:09:18.784Z,21.65
2024-02-17T07:10:18.742Z,21.64
2024-02-17T07:11:18.796Z,21.64
2024-02-17T07:12:18.785Z,21.65
2024-02-17T07:13:18.741Z,21.65
2024-02-17T07:14:18.747Z,21.65
2024-02-17T07:15:18.820Z,21.65
2024-02-17T07:16:18.817Z,21.66
2024-02-17T07:17:18.794Z,21.65
2024-02-17T07:18:19.094Z,21.65
2024-02-17T07:19:19.005Z,21.64
2024-02-17T07:20:18.900Z,21.64
2024-02-17T07:21:18.915Z,21.64
2024-02-17T07:22:18.908Z,21.64
2024-02-17T07:23:18.935Z,21.64
2024-02-17T07:24:19.008Z,21.64
2024-02-17T07:25:18.982Z,21.64
2024-02-17T07:26:19.013Z,21.64
2024-02-17T07:27:19.118Z,21.64
2024-02-17T07:28:19.050Z,21.64
2024-02-17T07:29:19.084Z,21.63
2024-02-17T07:30:19.145Z,21.64
2024-02-17T07:31:19.143Z,21.64
2024-02-17T07:32:19.169Z,21.64
2024-02-17T07:33:19.273Z,21.64
2024-02-17T07:34:19.330Z,21.64
2024-02-17T07:35:19.278Z,21.65
2024-02-17T07:36:19.315Z,21.65
2024-02-17T07:37:19.285Z,21.64
2024-02-17T07:38:19.303Z,21.64
2024-02-17T07:39:19.451Z,21.64
2024-02-17T07:40:19.369Z,21.65
2024-02-17T07:41:19.409Z,21.64
2024-02-17T07:42:19.426Z,21.65
2024-02-17T07:43:19.458Z,21.65
2024-02-17T07:44:19.467Z,21.66
2024-02-17T07:45:19.519Z,21.66
2024-02-17T07:46:21.321Z,21.65
2024-02-17T07:47:19.720Z,21.65
2024-02-17T07:48:19.897Z,21.65
2024-02-17T07:49:19.902Z,21.65
2024-02-17T07:50:19.858Z,21.65
2024-02-17T07:51:19.863Z,21.65
2024-02-17T07:52:19.846Z,21.65
2024-02-17T07:53:19.874Z,21.65
2024-02-17T07:54:19.978Z,21.66
2024-02-17T07:55:19.930Z,21.65
2024-02-17T07:56:19.937Z,21.65
2024-02-17T07:57:20.017Z,21.65
2024-02-17T07:58:20.005Z,21.65
2024-02-17T07:59:20.046Z,21.66
2024-02-17T08:00:20.177Z,21.65
2024-02-17T08:01:20.142Z,21.65
2024-02-17T08:02:20.129Z,21.65
2024-02-17T08:03:20.211Z,21.65
2024-02-17T08:04:20.221Z,21.65
2024-02-17T08:05:20.312Z,21.66
2024-02-17T08:06:20.448Z,21.66
2024-02-17T08:07:23.278Z,21.67
2024-02-17T08:08:20.283Z,21.67
2024-02-17T08:09:20.295Z,21.68
2024-02-17T08:10:20.274Z,21.69
2024-02-17T08:11:20.318Z,21.70
2024-02-17T08:12:20.320Z,21.69
2024-02-17T08:13:20.272Z,21.70
2024-02-17T08:14:20.287Z,21.70
2024-02-17T08:15:20.331Z,21.69
2024-02-17T08:16:20.258Z,21.70
2024-02-17T08:17:20.287Z,21.70
2024-02-17T08:18:20.479Z,21.72
2024-02-17T08:19:20.392Z,21.71
2024-02-17T08:20:20.428Z,21.71
2024-02-17T08:21:20.348Z,21.72
2024-02-17T08:22:20.293Z,21.72
2024-02-17T08:23:20.310Z,21.72
2024-02-17T08:24:20.352Z,21.72
2024-02-17T08:25:20.292Z,21.72
2024-02-17T08:26:20.286Z,21.72
2024-02-17T08:27:20.373Z,21.73
2024-02-17T08:28:20.292Z,21.72
2024-02-17T08:29:20.295Z,21.73
2024-02-17T08:30:20.337Z,21.74
2024-02-17T08:31:20.302Z,21.75
2024-02-17T08:32:20.351Z,21.76
2024-02-17T08:33:20.554Z,21.77
2024-02-17T08:34:20.425Z,21.78
2024-02-17T08:35:20.391Z,21.79
2024-02-17T08:36:20.326Z,21.80
2024-02-17T08:37:20.333Z,21.81
2024-02-17T08:38:20.315Z,21.82
2024-02-17T08:39:20.536Z,21.81
2024-02-17T08:40:20.338Z,21.81
2024-02-17T08:41:20.307Z,21.80
2024-02-17T08:42:20.389Z,21.80
2024-02-17T08:43:20.311Z,21.80
2024-02-17T08:44:20.328Z,21.81
2024-02-17T08:45:20.421Z,21.81
2024-02-17T08:46:20.358Z,21.82
2024-02-17T08:47:20.335Z,21.83
2024-02-17T08:48:20.482Z,21.87
2024-02-17T08:49:20.436Z,21.88
2024-02-17T08:50:20.363Z,21.87
2024-02-17T08:51:20.374Z,21.89
2024-02-17T08:52:20.382Z,21.89
2024-02-17T08:53:20.333Z,21.94
2024-02-17T08:54:20.435Z,21.99
2024-02-17T08:55:20.365Z,22.00
2024-02-17T08:56:20.367Z,21.98
2024-02-17T08:57:20.426Z,21.97
2024-02-17T08:58:20.391Z,21.95
2024-02-17T08:59:20.364Z,21.95
2024-02-17T09:00:20.374Z,21.94
2024-02-17T09:01:20.595Z,21.93
2024-02-17T09:02:20.447Z,21.93
2024-02-17T09:03:20.395Z,21.94
2024-02-17T09:04:20.374Z,21.94
2024-02-17T09:05:20.343Z,21.94
2024-02-17T09:06:20.402Z,21.94
2024-02-17T09:07:20.388Z,21.93
2024-02-17T09:08:20.345Z,21.93
2024-02-17T09:09:20.372Z,21.93
2024-02-17T09:10:20.346Z,21.93
2024-02-17T09:11:20.356Z,21.93
2024-02-17T09:12:20.383Z,21.92
2024-02-17T09:13:20.330Z,21.91
2024-02-17T09:14:20.356Z,21.91
2024-02-17T09:15:20.371Z,21.90
2024-02-17T09:16:20.335Z,21.90
2024-02-17T09:17:20.361Z,21.89
2024-02-17T09:18:20.470Z,21.89
2024-02-17T09:19:20.572Z,21.89
2024-02-17T09:20:20.346Z,21.88
2024-02-17T09:21:20.383Z,21.88
2024-02-17T09:22:20.352Z,21.87
2024-02-17T09:23:20.350Z,21.88
2024-02-17T09:24:20.609Z,21.88
2024-02-17T09:25:20.351Z,21.88
2024-02-17T09:26:20.351Z,21.87
2024-02-17T09:27:20.352Z,21.87
2024-02-17T09:28:20.368Z,21.87
2024-02-17T09:29:20.357Z,21.87
2024-02-17T09:30:20.567Z,21.87
2024-02-17T09:31:20.372Z,21.87
2024-02-17T09:32:20.362Z,21.86
2024-02-17T09:33:20.461Z,21.86
2024-02-17T09:34:20.702Z,21.87
2024-02-17T09:35:20.380Z,21.86
2024-02-17T09:36:20.365Z,21.86
2024-02-17T09:37:20.380Z,21.85
2024-02-17T09:38:20.373Z,21.86
2024-02-17T09:39:20.391Z,21.84
2024-02-17T09:40:20.370Z,21.85
2024-02-17T09:41:20.397Z,21.84
2024-02-17T09:42:20.483Z,21.84
2024-02-17T09:43:20.384Z,21.83
2024-02-17T09:44:20.387Z,21.84
2024-02-17T09:45:20.411Z,21.84
2024-02-17T09:46:20.397Z,21.83
2024-02-17T09:47:20.382Z,21.82
2024-02-17T09:48:20.500Z,21.82
2024-02-17T09:49:20.462Z,21.82
2024-02-17T09:50:20.452Z,21.82
2024-02-17T09:51:20.473Z,21.81
2024-02-17T09:52:20.393Z,21.81
2024-02-17T09:53:20.412Z,21.81
2024-02-17T09:54:20.423Z,21.81
2024-02-17T09:55:20.404Z,21.80
2024-02-17T09:56:22.255Z,21.79
2024-02-17T09:57:20.547Z,21.80
2024-02-17T09:58:20.605Z,21.80
2024-02-17T09:59:20.575Z,21.80
2024-02-17T10:00:20.640Z,21.79
2024-02-17T10:01:20.658Z,21.79
2024-02-17T10:02:20.647Z,21.79
2024-02-17T10:03:21.347Z,21.79
2024-02-17T10:04:22.176Z,21.79
2024-02-17T10:05:20.667Z,21.79
2024-02-17T10:06:20.751Z,21.79
2024-02-17T10:07:20.790Z,21.78
2024-02-17T10:08:20.691Z,21.79
2024-02-17T10:09:20.759Z,21.78
2024-02-17T10:10:20.684Z,21.78
2024-02-17T10:11:20.739Z,21.79
2024-02-17T10:12:20.671Z,21.78
2024-02-17T10:13:20.683Z,21.78
2024-02-17T10:14:20.687Z,21.78
2024-02-17T10:15:20.750Z,21.78
2024-02-17T10:16:20.686Z,21.78
2024-02-17T10:17:20.690Z,21.78
2024-02-17T10:18:23.600Z,21.77
2024-02-17T10:19:20.838Z,21.77
2024-02-17T10:20:20.739Z,21.78
2024-02-17T10:21:20.731Z,21.78
2024-02-17T10:22:20.706Z,21.78
2024-02-17T10:23:20.705Z,21.77
2024-02-17T10:24:20.723Z,21.77
2024-02-17T10:25:23.196Z,21.78
2024-02-17T10:26:20.725Z,21.77
2024-02-17T10:27:20.712Z,21.78
2024-02-17T10:28:20.703Z,21.78
2024-02-17T10:29:20.688Z,21.77
2024-02-17T10:30:20.773Z,21.78
2024-02-17T10:31:20.705Z,21.78
2024-02-17T10:32:20.719Z,21.78
2024-02-17T10:33:20.838Z,21.79
2024-02-17T10:34:20.906Z,21.79
2024-02-17T10:35:20.697Z,21.78
2024-02-17T10:36:20.853Z,21.79
2024-02-17T10:37:20.695Z,21.79
2024-02-17T10:38:20.705Z,21.79
2024-02-17T10:39:20.757Z,21.80
2024-02-17T10:40:20.707Z,21.80
2024-02-17T10:41:20.714Z,21.81
2024-02-17T10:42:20.730Z,21.81
2024-02-17T10:43:20.728Z,21.82
2024-02-17T10:44:20.710Z,21.82
2024-02-17T10:45:20.888Z,21.83
2024-02-17T10:46:20.716Z,21.84
2024-02-17T10:47:20.738Z,21.84
2024-02-17T10:48:20.888Z,21.86
2024-02-17T10:49:20.788Z,21.85
2024-02-17T10:50:20.745Z,21.85
2024-02-17T10:51:20.756Z,21.86
2024-02-17T10:52:20.727Z,21.87
2024-02-17T10:53:20.746Z,21.87
2024-02-17T10:54:20.777Z,21.86
2024-02-17T10:55:20.725Z,21.86
2024-02-17T10:56:20.749Z,21.86
2024-02-17T10:57:20.816Z,21.86
2024-02-17T10:58:20.729Z,21.85
2024-02-17T10:59:20.743Z,21.86
2024-02-17T11:00:20.809Z,21.85
2024-02-17T11:01:20.798Z,21.85
2024-02-17T11:02:20.737Z,21.84
2024-02-17T11:03:20.856Z,21.83
2024-02-17T11:04:20.760Z,21.84
2024-02-17T11:05:20.749Z,21.84
2024-02-17T11:06:20.808Z,21.84
2024-02-17T11:07:20.843Z,21.84
2024-02-17T11:08:20.767Z,21.84
2024-02-17T11:09:20.763Z,21.84
2024-02-17T11:10:20.751Z,21.84
2024-02-17T11:11:20.870Z,21.84
2024-02-17T11:12:20.782Z,21.84
2024-02-17T11:13:21.126Z,21.84
2024-02-17T11:14:20.772Z,21.83
2024-02-17T11:15:20.854Z,21.84
2024-02-17T11:16:20.805Z,21.85
2024-02-17T11:17:20.754Z,21.83
2024-02-17T11:18:20.842Z,21.83
2024-02-17T11:19:28.482Z,21.83
2024-02-17T11:20:21.860Z,21.83
2024-02-17T11:21:20.803Z,21.83
2024-02-17T11:22:20.769Z,21.82
2024-02-17T11:23:20.783Z,21.84
2024-02-17T11:24:20.796Z,21.84
2024-02-17T11:25:20.787Z,21.83
2024-02-17T11:26:29.210Z,21.83
2024-02-17T11:27:21.818Z,21.83
2024-02-17T11:28:20.806Z,21.83
2024-02-17T11:29:20.794Z,21.83
2024-02-17T11:30:21.048Z,21.84
2024-02-17T11:31:20.829Z,21.83
2024-02-17T11:32:20.807Z,21.83
2024-02-17T11:33:20.887Z,21.83
2024-02-17T11:34:20.943Z,21.83
2024-02-17T11:35:20.994Z,21.83
2024-02-17T11:36:20.998Z,21.83
2024-02-17T11:37:20.831Z,21.83
2024-02-17T11:38:20.839Z,21.83
2024-02-17T11:39:20.847Z,21.82
2024-02-17T11:40:20.807Z,21.83
2024-02-17T11:41:20.854Z,21.83
2024-02-17T11:42:20.841Z,21.82
2024-02-17T11:43:20.822Z,21.83
2024-02-17T11:44:20.824Z,21.82
2024-02-17T11:45:20.894Z,21.82
2024-02-17T11:46:20.871Z,21.83
2024-02-17T11:47:20.836Z,21.82
2024-02-17T11:48:21.058Z,21.83
2024-02-17T11:49:20.875Z,21.82
2024-02-17T11:50:20.956Z,21.82
2024-02-17T11:51:21.613Z,21.82
2024-02-17T11:52:20.837Z,21.82
2024-02-17T11:53:20.849Z,21.82
2024-02-17T11:54:20.920Z,21.82
2024-02-17T11:55:20.860Z,21.83
2024-02-17T11:56:20.847Z,21.83
2024-02-17T11:57:20.861Z,21.83
2024-02-17T11:58:20.844Z,21.83
2024-02-17T11:59:20.838Z,21.83
2024-02-17T12:00:20.874Z,21.83
2024-02-17T12:01:20.932Z,21.84
2024-02-17T12:02:20.882Z,21.84
2024-02-17T12:03:20.915Z,21.83
2024-02-17T12:04:20.959Z,21.84
2024-02-17T12:05:21.124Z,21.84
2024-02-17T12:06:21.074Z,21.84
2024-02-17T12:07:21.094Z,21.83
2024-02-17T12:08:21.161Z,21.84
2024-02-17T12:09:21.027Z,21.83
2024-02-17T12:10:21.014Z,21.84
2024-02-17T12:11:21.103Z,21.83
2024-02-17T12:12:21.090Z,21.83
2024-02-17T12:13:21.074Z,21.83
2024-02-17T12:14:21.102Z,21.83
2024-02-17T12:15:21.310Z,21.83
2024-02-17T12:16:21.159Z,21.83
2024-02-17T12:17:21.160Z,21.83
2024-02-17T12:18:21.423Z,21.83
2024-02-17T12:19:21.275Z,21.84
2024-02-17T12:20:21.201Z,21.83
2024-02-17T12:21:21.255Z,21.84
2024-02-17T12:22:21.244Z,21.85
2024-02-17T12:23:21.274Z,21.85
2024-02-17T12:24:21.393Z,21.85
2024-02-17T12:25:21.316Z,21.85
2024-02-17T12:26:28.332Z,21.85
2024-02-17T12:27:22.333Z,21.85
2024-02-17T12:28:21.306Z,21.85
2024-02-17T12:29:21.313Z,21.85
2024-02-17T12:30:21.331Z,21.85
2024-02-17T12:31:21.343Z,21.85
2024-02-17T12:32:21.316Z,21.86
2024-02-17T12:33:21.474Z,21.86
2024-02-17T12:34:21.445Z,21.86
2024-02-17T12:35:21.500Z,21.85
2024-02-17T12:36:21.358Z,21.85
2024-02-17T12:37:21.327Z,21.86
2024-02-17T12:38:21.390Z,21.86
2024-02-17T12:39:21.508Z,21.85
2024-02-17T12:40:21.324Z,21.85
2024-02-17T12:41:21.323Z,21.84
2024-02-17T12:42:21.363Z,21.84
2024-02-17T12:43:21.353Z,21.84
2024-02-17T12:44:23.451Z,21.84
2024-02-17T12:45:21.358Z,21.84
2024-02-17T12:46:21.333Z,21.84
2024-02-17T12:47:21.333Z,21.84
2024-02-17T12:48:21.420Z,21.83
2024-02-17T12:49:21.539Z,21.84
2024-02-17T12:50:24.429Z,21.84
2024-02-17T12:51:21.409Z,21.84
2024-02-17T12:52:21.344Z,21.84
2024-02-17T12:53:21.346Z,21.84